sensor_id;sensor_type;location;lat;lon;timestamp;pressure;altitude;pressure_sealevel;temperature;humidity
11878;BME280;5998;42.676;23.268;2023-03-11T00:00:46;93102.34;;;9.53;100.00
11878;BME280;5998;42.676;23.268;2023-03-11T00:03:14;93111.91;;;9.50;100.00
11878;BME280;5998;42.676;23.268;2023-03-11T00:05:43;93100.06;;;9.55;100.00
11878;BME280;5998;42.676;23.268;2023-03-11T00:08:12;93097.22;;;9.34;100.00
11878;BME280;5998;42.676;23.268;2023-03-11T00:10:42;93114.06;;;9.27;100.00
11878;BME280;5998;42.676;23.268;2023-03-11T00:13:11;93003.13;;;8.65;100.00
11878;BME280;5998;42.676;23.268;2023-03-11T00:15:40;93093.75;;;9.30;100.00
11878;BME280;5998;42.676;23.268;2023-03-11T00:18:07;93106.78;;;9.31;100.00
11878;BME280;5998;42.676;23.268;2023-03-11T00:20:36;93078.22;;;9.09;100.00
11878;BME280;5998;42.676;23.268;2023-03-11T00:23:05;93103.66;;;9.26;100.00
11878;BME280;5998;42.676;23.268;2023-03-11T00:25:33;93106.78;;;9.28;100.00
11878;BME280;5998;42.676;23.268;2023-03-11T00:28:00;93092.94;;;9.26;100.00
11878;BME280;5998;42.676;23.268;2023-03-11T00:30:28;93091.44;;;9.28;100.00
11878;BME280;5998;42.676;23.268;2023-03-11T00:32:57;93082.34;;;9.47;100.00
11878;BME280;5998;42.676;23.268;2023-03-11T00:35:27;93082.41;;;9.58;100.00
11878;BME280;5998;42.676;23.268;2023-03-11T00:37:55;93089.41;;;9.69;100.00
11878;BME280;5998;42.676;23.268;2023-03-11T00:40:24;93089.06;;;9.78;100.00
11878;BME280;5998;42.676;23.268;2023-03-11T00:42:52;93078.38;;;9.92;100.00
11878;BME280;5998;42.676;23.268;2023-03-11T00:45:18;93079.59;;;10.05;100.00
11878;BME280;5998;42.676;23.268;2023-03-11T00:47:45;93063.47;;;10.08;100.00
11878;BME280;5998;42.676;23.268;2023-03-11T00:50:17;93054.22;;;10.06;100.00
11878;BME280;5998;42.676;23.268;2023-03-11T00:52:44;93036.59;;;10.12;100.00
11878;BME280;5998;42.676;23.268;2023-03-11T00:55:12;93021.69;;;10.22;100.00
11878;BME280;5998;42.676;23.268;2023-03-11T00:57:40;93014.00;;;10.24;100.00
11878;BME280;5998;42.676;23.268;2023-03-11T01:00:08;92991.31;;;10.28;100.00
11878;BME280;5998;42.676;23.268;2023-03-11T01:02:38;93001.69;;;10.33;100.00
11878;BME280;5998;42.676;23.268;2023-03-11T01:05:05;92993.25;;;10.31;100.00
11878;BME280;5998;42.676;23.268;2023-03-11T01:07:34;93007.47;;;10.28;100.00
11878;BME280;5998;42.676;23.268;2023-03-11T01:10:01;92990.19;;;10.33;100.00
11878;BME280;5998;42.676;23.268;2023-03-11T01:12:27;92988.66;;;10.32;100.00
11878;BME280;5998;42.676;23.268;2023-03-11T01:14:54;92992.84;;;10.22;100.00
11878;BME280;5998;42.676;23.268;2023-03-11T01:17:21;92997.47;;;10.18;100.00
11878;BME280;5998;42.676;23.268;2023-03-11T01:19:48;92980.09;;;10.08;100.00
11878;BME280;5998;42.676;23.268;2023-03-11T01:22:15;92963.22;;;10.12;100.00
11878;BME280;5998;42.676;23.268;2023-03-11T01:24:43;92957.03;;;10.00;100.00
11878;BME280;5998;42.676;23.268;2023-03-11T01:27:10;92948.97;;;10.00;100.00
11878;BME280;5998;42.676;23.268;2023-03-11T01:29:37;92932.84;;;10.04;100.00
11878;BME280;5998;42.676;23.268;2023-03-11T01:32:04;92911.75;;;10.09;100.00
11878;BME280;5998;42.676;23.268;2023-03-11T01:34:31;92920.94;;;10.08;100.00
11878;BME280;5998;42.676;23.268;2023-03-11T01:37:00;92927.16;;;10.16;100.00
11878;BME280;5998;42.676;23.268;2023-03-11T01:39:27;92917.50;;;10.12;100.00
11878;BME280;5998;42.676;23.268;2023-03-11T01:41:55;92914.81;;;10.04;100.00
11878;BME280;5998;42.676;23.268;2023-03-11T01:44:22;92904.78;;;9.94;100.00
11878;BME280;5998;42.676;23.268;2023-03-11T01:49:52;92940.06;;;9.75;100.00
11878;BME280;5998;42.676;23.268;2023-03-11T01:52:19;92916.19;;;9.42;100.00
11878;BME280;5998;42.676;23.268;2023-03-11T01:54:46;92957.16;;;9.32;100.00
11878;BME280;5998;42.676;23.268;2023-03-11T01:57:14;92974.44;;;9.31;100.00
11878;BME280;5998;42.676;23.268;2023-03-11T01:59:44;92967.59;;;9.44;100.00
11878;BME280;5998;42.676;23.268;2023-03-11T02:02:16;92967.97;;;9.46;100.00
11878;BME280;5998;42.676;23.268;2023-03-11T02:04:44;92962.63;;;9.49;100.00
11878;BME280;5998;42.676;23.268;2023-03-11T02:07:12;92945.41;;;9.58;100.00
11878;BME280;5998;42.676;23.268;2023-03-11T02:09:39;92937.78;;;9.74;100.00
11878;BME280;5998;42.676;23.268;2023-03-11T02:12:08;92953.56;;;9.86;100.00
11878;BME280;5998;42.676;23.268;2023-03-11T02:14:38;92955.13;;;9.94;100.00
11878;BME280;5998;42.676;23.268;2023-03-11T02:17:07;92951.66;;;9.93;100.00
11878;BME280;5998;42.676;23.268;2023-03-11T02:19:41;92958.94;;;9.86;100.00
11878;BME280;5998;42.676;23.268;2023-03-11T02:22:16;92948.16;;;9.82;100.00
11878;BME280;5998;42.676;23.268;2023-03-11T02:24:44;92949.38;;;9.99;100.00
11878;BME280;5998;42.676;23.268;2023-03-11T02:27:15;92939.38;;;9.99;100.00
11878;BME280;5998;42.676;23.268;2023-03-11T02:29:44;92945.91;;;10.09;100.00
11878;BME280;5998;42.676;23.268;2023-03-11T02:32:14;92945.16;;;10.08;100.00
11878;BME280;5998;42.676;23.268;2023-03-11T02:34:41;92949.00;;;10.11;100.00
11878;BME280;5998;42.676;23.268;2023-03-11T02:37:10;92944.44;;;10.15;100.00
11878;BME280;5998;42.676;23.268;2023-03-11T02:39:39;92952.13;;;10.24;100.00
11878;BME280;5998;42.676;23.268;2023-03-11T02:42:09;92953.66;;;10.28;100.00
11878;BME280;5998;42.676;23.268;2023-03-11T02:44:40;92952.91;;;10.35;100.00
11878;BME280;5998;42.676;23.268;2023-03-11T02:47:07;92962.91;;;10.38;100.00
11878;BME280;5998;42.676;23.268;2023-03-11T02:49:35;92954.84;;;10.38;100.00
11878;BME280;5998;42.676;23.268;2023-03-11T02:52:02;92954.84;;;10.38;100.00
11878;BME280;5998;42.676;23.268;2023-03-11T02:54:29;92957.91;;;10.40;100.00
11878;BME280;5998;42.676;23.268;2023-03-11T02:56:55;92942.53;;;10.37;100.00
11878;BME280;5998;42.676;23.268;2023-03-11T02:59:22;92945.25;;;10.40;100.00
11878;BME280;5998;42.676;23.268;2023-03-11T03:01:50;92952.53;;;10.47;100.00
11878;BME280;5998;42.676;23.268;2023-03-11T03:04:17;92935.63;;;10.46;100.00
11878;BME280;5998;42.676;23.268;2023-03-11T03:06:44;92942.19;;;10.49;100.00
11878;BME280;5998;42.676;23.268;2023-03-11T03:09:10;92946.00;;;10.48;100.00
11878;BME280;5998;42.676;23.268;2023-03-11T03:11:37;92939.84;;;10.47;100.00
11878;BME280;5998;42.676;23.268;2023-03-11T03:14:04;92948.69;;;10.48;100.00
11878;BME280;5998;42.676;23.268;2023-03-11T03:16:30;92946.00;;;10.48;100.00
11878;BME280;5998;42.676;23.268;2023-03-11T03:18:58;92953.31;;;10.54;100.00
11878;BME280;5998;42.676;23.268;2023-03-11T03:21:25;92957.53;;;10.48;100.00
11878;BME280;5998;42.676;23.268;2023-03-11T03:23:52;92951.78;;;10.43;100.00
11878;BME280;5998;42.676;23.268;2023-03-11T03:26:18;92950.59;;;10.44;100.00
11878;BME280;5998;42.676;23.268;2023-03-11T03:28:45;92948.31;;;10.46;100.00
11878;BME280;5998;42.676;23.268;2023-03-11T03:31:12;92942.19;;;10.49;100.00
11878;BME280;5998;42.676;23.268;2023-03-11T03:33:38;92946.38;;;10.53;100.00
11878;BME280;5998;42.676;23.268;2023-03-11T03:36:08;92942.16;;;10.56;100.00
11878;BME280;5998;42.676;23.268;2023-03-11T03:38:35;92928.69;;;10.63;100.00
11878;BME280;5998;42.676;23.268;2023-03-11T03:41:02;92922.94;;;10.68;100.00
11878;BME280;5998;42.676;23.268;2023-03-11T03:43:29;92925.22;;;10.80;100.00
11878;BME280;5998;42.676;23.268;2023-03-11T03:45:57;92932.16;;;10.81;100.00
11878;BME280;5998;42.676;23.268;2023-03-11T03:48:24;92938.31;;;10.82;100.00
11878;BME280;5998;42.676;23.268;2023-03-11T03:50:50;92932.91;;;10.85;100.00
11878;BME280;5998;42.676;23.268;2023-03-11T03:53:18;92924.06;;;10.88;100.00
11878;BME280;5998;42.676;23.268;2023-03-11T03:55:45;92921.00;;;10.90;100.00
11878;BME280;5998;42.676;23.268;2023-03-11T03:58:12;92899.47;;;10.86;100.00
11878;BME280;5998;42.676;23.268;2023-03-11T04:00:39;92926.00;;;10.98;100.00
11878;BME280;5998;42.676;23.268;2023-03-11T04:03:06;92923.66;;;10.97;100.00
11878;BME280;5998;42.676;23.268;2023-03-11T04:05:32;92930.59;;;11.01;100.00
11878;BME280;5998;42.676;23.268;2023-03-11T04:07:59;92929.84;;;11.01;100.00
11878;BME280;5998;42.676;23.268;2023-03-11T04:10:27;92922.50;;;11.05;100.00
11878;BME280;5998;42.676;23.268;2023-03-11T04:12:54;92914.03;;;10.99;100.00
11878;BME280;5998;42.676;23.268;2023-03-11T04:15:21;92912.91;;;10.97;100.00
11878;BME280;5998;42.676;23.268;2023-03-11T04:17:48;92924.44;;;10.94;100.00
11878;BME280;5998;42.676;23.268;2023-03-11T04:20:14;92934.44;;;11.00;100.00
11878;BME280;5998;42.676;23.268;2023-03-11T04:22:41;92931.34;;;11.02;100.00
11878;BME280;5998;42.676;23.268;2023-03-11T04:25:08;92934.03;;;11.02;100.00
11878;BME280;5998;42.676;23.268;2023-03-11T04:27:36;92932.50;;;11.08;100.00
11878;BME280;5998;42.676;23.268;2023-03-11T04:30:08;92929.81;;;10.97;100.00
11878;BME280;5998;42.676;23.268;2023-03-11T04:32:35;92929.81;;;10.94;100.00
11878;BME280;5998;42.676;23.268;2023-03-11T04:35:02;92928.69;;;10.98;100.00
11878;BME280;5998;42.676;23.268;2023-03-11T04:37:29;92931.75;;;11.00;100.00
11878;BME280;5998;42.676;23.268;2023-03-11T04:39:55;92930.19;;;11.03;100.00
11878;BME280;5998;42.676;23.268;2023-03-11T04:42:22;92929.84;;;11.01;100.00
11878;BME280;5998;42.676;23.268;2023-03-11T04:44:50;92933.28;;;11.05;100.00
11878;BME280;5998;42.676;23.268;2023-03-11T04:47:17;92935.22;;;11.01;100.00
11878;BME280;5998;42.676;23.268;2023-03-11T04:49:46;92939.44;;;11.02;100.00
11878;BME280;5998;42.676;23.268;2023-03-11T04:52:12;92930.22;;;10.96;100.00
11878;BME280;5998;42.676;23.268;2023-03-11T04:54:39;92935.19;;;11.04;100.00
11878;BME280;5998;42.676;23.268;2023-03-11T04:57:06;92945.59;;;11.09;100.00
11878;BME280;5998;42.676;23.268;2023-03-11T04:59:32;92945.97;;;11.04;100.00
11878;BME280;5998;42.676;23.268;2023-03-11T05:02:00;92946.75;;;10.94;100.00
11878;BME280;5998;42.676;23.268;2023-03-11T05:04:27;92963.66;;;11.02;100.00
11878;BME280;5998;42.676;23.268;2023-03-11T05:06:54;92961.75;;;11.02;100.00
11878;BME280;5998;42.676;23.268;2023-03-11T05:09:20;92964.84;;;10.97;100.00
11878;BME280;5998;42.676;23.268;2023-03-11T05:11:47;92954.47;;;10.96;100.00
11878;BME280;5998;42.676;23.268;2023-03-11T05:14:14;92961.75;;;11.02;100.00
11878;BME280;5998;42.676;23.268;2023-03-11T05:16:40;92973.28;;;11.06;100.00
11878;BME280;5998;42.676;23.268;2023-03-11T05:19:08;92978.28;;;11.11;100.00
11878;BME280;5998;42.676;23.268;2023-03-11T05:21:49;92982.91;;;11.04;100.00
11878;BME280;5998;42.676;23.268;2023-03-11T05:24:16;92990.22;;;11.03;100.00
11878;BME280;5998;42.676;23.268;2023-03-11T05:26:42;92987.13;;;11.05;100.00
11878;BME280;5998;42.676;23.268;2023-03-11T05:29:09;92992.13;;;11.13;100.00
11878;BME280;5998;42.676;23.268;2023-03-11T05:31:36;92993.69;;;11.14;100.00
11878;BME280;5998;42.676;23.268;2023-03-11T05:34:03;92994.03;;;11.13;100.00
11878;BME280;5998;42.676;23.268;2023-03-11T05:36:31;93000.22;;;11.17;100.00
11878;BME280;5998;42.676;23.268;2023-03-11T05:38:57;92996.75;;;11.13;100.00
11878;BME280;5998;42.676;23.268;2023-03-11T05:41:24;93005.59;;;11.17;100.00
11878;BME280;5998;42.676;23.268;2023-03-11T05:43:51;93002.91;;;11.17;100.00
11878;BME280;5998;42.676;23.268;2023-03-11T05:46:17;93003.66;;;11.10;100.00
11878;BME280;5998;42.676;23.268;2023-03-11T05:48:44;93011.38;;;11.12;100.00
11878;BME280;5998;42.676;23.268;2023-03-11T05:51:11;93011.38;;;11.12;100.00
11878;BME280;5998;42.676;23.268;2023-03-11T05:53:42;93019.06;;;11.20;100.00
11878;BME280;5998;42.676;23.268;2023-03-11T05:56:12;93019.81;;;11.21;100.00
11878;BME280;5998;42.676;23.268;2023-03-11T05:58:39;93035.63;;;11.22;100.00
11878;BME280;5998;42.676;23.268;2023-03-11T06:01:07;93029.06;;;11.27;100.00
11878;BME280;5998;42.676;23.268;2023-03-11T06:03:35;93041.75;;;11.16;100.00
11878;BME280;5998;42.676;23.268;2023-03-11T06:06:03;93042.16;;;11.07;100.00
11878;BME280;5998;42.676;23.268;2023-03-11T06:08:30;93042.91;;;11.04;100.00
11878;BME280;5998;42.676;23.268;2023-03-11T06:11:01;93047.16;;;11.02;100.00
11878;BME280;5998;42.676;23.268;2023-03-11T06:13:28;93045.22;;;11.02;100.00
11878;BME280;5998;42.676;23.268;2023-03-11T06:15:55;93049.84;;;10.98;100.00
11878;BME280;5998;42.676;23.268;2023-03-11T06:18:22;93053.31;;;10.92;100.00
11878;BME280;5998;42.676;23.268;2023-03-11T06:20:50;93048.31;;;10.90;100.00
11878;BME280;5998;42.676;23.268;2023-03-11T06:23:17;93052.53;;;10.84;100.00
11878;BME280;5998;42.676;23.268;2023-03-11T06:25:44;93063.31;;;10.84;100.00
11878;BME280;5998;42.676;23.268;2023-03-11T06:28:12;93049.47;;;10.79;100.00
11878;BME280;5998;42.676;23.268;2023-03-11T06:30:39;93055.59;;;10.83;100.00
11878;BME280;5998;42.676;23.268;2023-03-11T06:33:06;93051.38;;;10.85;100.00
11878;BME280;5998;42.676;23.268;2023-03-11T06:35:32;93035.22;;;10.71;100.00
11878;BME280;5998;42.676;23.268;2023-03-11T06:37:59;93054.47;;;10.84;100.00
11878;BME280;5998;42.676;23.268;2023-03-11T06:40:26;93057.91;;;10.81;100.00
11878;BME280;5998;42.676;23.268;2023-03-11T06:42:52;93058.28;;;10.83;100.00
11878;BME280;5998;42.676;23.268;2023-03-11T06:45:20;93057.13;;;10.80;100.00
11878;BME280;5998;42.676;23.268;2023-03-11T06:47:47;93055.63;;;10.79;100.00
11878;BME280;5998;42.676;23.268;2023-03-11T06:50:14;93057.91;;;10.74;100.00
11878;BME280;5998;42.676;23.268;2023-03-11T06:52:41;93062.16;;;10.82;100.00
11878;BME280;5998;42.676;23.268;2023-03-11T06:55:08;93067.13;;;10.80;100.00
11878;BME280;5998;42.676;23.268;2023-03-11T06:57:35;93060.25;;;10.82;100.00
11878;BME280;5998;42.676;23.268;2023-03-11T07:00:02;93067.91;;;10.84;100.00
11878;BME280;5998;42.676;23.268;2023-03-11T07:02:33;93075.22;;;10.94;100.00
11878;BME280;5998;42.676;23.268;2023-03-11T07:05:00;93071.41;;;11.05;100.00
11878;BME280;5998;42.676;23.268;2023-03-11T07:07:26;93070.63;;;11.15;100.00
11878;BME280;5998;42.676;23.268;2023-03-11T07:09:54;93060.63;;;11.19;100.00
11878;BME280;5998;42.676;23.268;2023-03-11T07:12:20;93058.69;;;11.27;100.00
11878;BME280;5998;42.676;23.268;2023-03-11T07:14:53;93054.06;;;11.27;100.00
11878;BME280;5998;42.676;23.268;2023-03-11T07:17:20;93047.94;;;11.20;100.00
11878;BME280;5998;42.676;23.268;2023-03-11T07:19:49;93042.91;;;11.40;100.00
11878;BME280;5998;42.676;23.268;2023-03-11T07:22:16;93047.91;;;11.45;100.00
11878;BME280;5998;42.676;23.268;2023-03-11T07:24:44;93054.41;;;11.65;100.00
11878;BME280;5998;42.676;23.268;2023-03-11T07:27:10;93053.25;;;11.66;100.00
11878;BME280;5998;42.676;23.268;2023-03-11T07:29:37;93046.75;;;11.53;100.00
11878;BME280;5998;42.676;23.268;2023-03-11T07:32:06;93022.50;;;11.42;100.00
11878;BME280;5998;42.676;23.268;2023-03-11T07:34:33;93033.63;;;11.72;100.00
11878;BME280;5998;42.676;23.268;2023-03-11T07:37:02;93031.97;;;12.03;100.00
11878;BME280;5998;42.676;23.268;2023-03-11T07:39:29;93026.50;;;12.24;100.00
11878;BME280;5998;42.676;23.268;2023-03-11T07:41:56;92989.75;;;12.44;100.00
11878;BME280;5998;42.676;23.268;2023-03-11T07:44:22;93010.53;;;13.10;100.00
11878;BME280;5998;42.676;23.268;2023-03-11T07:46:49;92998.78;;;13.30;100.00
11878;BME280;5998;42.676;23.268;2023-03-11T07:49:16;92998.34;;;13.73;100.00
11878;BME280;5998;42.676;23.268;2023-03-11T07:51:42;92994.78;;;14.13;100.00
11878;BME280;5998;42.676;23.268;2023-03-11T07:54:11;92997.22;;;14.04;100.00
11878;BME280;5998;42.676;23.268;2023-03-11T07:56:38;92988.44;;;13.93;100.00
11878;BME280;5998;42.676;23.268;2023-03-11T07:59:05;93000.72;;;14.01;100.00
11878;BME280;5998;42.676;23.268;2023-03-11T08:01:33;92985.44;;;14.17;100.00
11878;BME280;5998;42.676;23.268;2023-03-11T08:04:04;92976.38;;;14.31;100.00
11878;BME280;5998;42.676;23.268;2023-03-11T08:06:32;92966.66;;;14.37;100.00
11878;BME280;5998;42.676;23.268;2023-03-11T08:09:01;92970.41;;;14.47;100.00
11878;BME280;5998;42.676;23.268;2023-03-11T08:11:30;92957.19;;;14.75;100.00
11878;BME280;5998;42.676;23.268;2023-03-11T08:13:57;92940.56;;;14.77;100.00
11878;BME280;5998;42.676;23.268;2023-03-11T08:16:24;92938.84;;;15.10;100.00
11878;BME280;5998;42.676;23.268;2023-03-11T08:18:51;92934.31;;;15.26;100.00
11878;BME280;5998;42.676;23.268;2023-03-11T08:21:20;92925.25;;;15.33;100.00
11878;BME280;5998;42.676;23.268;2023-03-11T08:23:47;92921.66;;;15.40;100.00
11878;BME280;5998;42.676;23.268;2023-03-11T08:26:16;92930.16;;;15.42;100.00
11878;BME280;5998;42.676;23.268;2023-03-11T08:28:45;92925.44;;;15.46;100.00
11878;BME280;5998;42.676;23.268;2023-03-11T08:31:13;92919.84;;;15.33;100.00
11878;BME280;5998;42.676;23.268;2023-03-11T08:33:40;92914.00;;;15.34;100.00
11878;BME280;5998;42.676;23.268;2023-03-11T08:36:07;92923.38;;;15.30;100.00
11878;BME280;5998;42.676;23.268;2023-03-11T08:38:34;92931.22;;;15.24;100.00
11878;BME280;5998;42.676;23.268;2023-03-11T08:41:01;92904.56;;;15.43;100.00
11878;BME280;5998;42.676;23.268;2023-03-11T08:43:27;92910.38;;;15.64;100.00
11878;BME280;5998;42.676;23.268;2023-03-11T08:45:55;92905.84;;;15.97;100.00
11878;BME280;5998;42.676;23.268;2023-03-11T08:48:22;92901.94;;;15.98;100.00
11878;BME280;5998;42.676;23.268;2023-03-11T08:50:49;92902.09;;;16.27;100.00
11878;BME280;5998;42.676;23.268;2023-03-11T08:53:16;92888.81;;;16.13;100.00
11878;BME280;5998;42.676;23.268;2023-03-11T08:55:43;92898.16;;;16.47;100.00
11878;BME280;5998;42.676;23.268;2023-03-11T08:58:10;92900.31;;;16.56;100.00
11878;BME280;5998;42.676;23.268;2023-03-11T09:00:36;92893.81;;;16.34;100.00
11878;BME280;5998;42.676;23.268;2023-03-11T09:03:04;92900.47;;;16.65;100.00
11878;BME280;5998;42.676;23.268;2023-03-11T09:05:31;92896.50;;;16.70;100.00
11878;BME280;5998;42.676;23.268;2023-03-11T09:07:58;92904.41;;;16.80;100.00
11878;BME280;5998;42.676;23.268;2023-03-11T09:10:24;92907.53;;;16.79;100.00
11878;BME280;5998;42.676;23.268;2023-03-11T09:12:51;92909.66;;;16.55;100.00
11878;BME280;5998;42.676;23.268;2023-03-11T09:15:18;92902.22;;;16.39;100.00
11878;BME280;5998;42.676;23.268;2023-03-11T09:17:44;92901.84;;;16.37;100.00
11878;BME280;5998;42.676;23.268;2023-03-11T09:20:14;92898.44;;;16.17;100.00
11878;BME280;5998;42.676;23.268;2023-03-11T09:22:41;92892.59;;;16.35;100.00
11878;BME280;5998;42.676;23.268;2023-03-11T09:25:09;92887.59;;;16.53;100.00
11878;BME280;5998;42.676;23.268;2023-03-11T09:27:37;92882.91;;;16.86;100.00
11878;BME280;5998;42.676;23.268;2023-03-11T09:30:06;92886.53;;;17.11;100.00
11878;BME280;5998;42.676;23.268;2023-03-11T09:32:33;92877.66;;;17.40;100.00
11878;BME280;5998;42.676;23.268;2023-03-11T09:35:00;92863.13;;;16.69;100.00
11878;BME280;5998;42.676;23.268;2023-03-11T09:37:28;92867.94;;;17.10;100.00
11878;BME280;5998;42.676;23.268;2023-03-11T09:39:55;92870.00;;;17.35;100.00
11878;BME280;5998;42.676;23.268;2023-03-11T09:42:30;92866.91;;;17.49;100.00
11878;BME280;5998;42.676;23.268;2023-03-11T09:45:02;92875.34;;;16.93;95.40
11878;BME280;5998;42.676;23.268;2023-03-11T09:47:37;92864.78;;;17.56;100.00
11878;BME280;5998;42.676;23.268;2023-03-11T09:50:25;92860.31;;;17.34;96.24
11878;BME280;5998;42.676;23.268;2023-03-11T09:53:04;92874.03;;;17.59;100.00
11878;BME280;5998;42.676;23.268;2023-03-11T09:55:38;92868.50;;;17.62;100.00
11878;BME280;5998;42.676;23.268;2023-03-11T09:58:13;92864.22;;;17.90;100.00
11878;BME280;5998;42.676;23.268;2023-03-11T10:00:42;92881.91;;;18.11;93.29
11878;BME280;5998;42.676;23.268;2023-03-11T10:03:16;92882.94;;;17.31;76.67
11878;BME280;5998;42.676;23.268;2023-03-11T10:05:46;92884.94;;;16.98;89.20
11878;BME280;5998;42.676;23.268;2023-03-11T10:08:22;92860.72;;;16.39;94.74
11878;BME280;5998;42.676;23.268;2023-03-11T10:10:55;92893.41;;;16.16;81.64
11878;BME280;5998;42.676;23.268;2023-03-11T10:13:30;92896.94;;;15.97;97.49
11878;BME280;5998;42.676;23.268;2023-03-11T10:16:06;92880.59;;;16.16;99.71
11878;BME280;5998;42.676;23.268;2023-03-11T10:18:44;92889.59;;;16.13;100.00
11878;BME280;5998;42.676;23.268;2023-03-11T10:21:23;92891.34;;;16.39;93.30
11878;BME280;5998;42.676;23.268;2023-03-11T10:24:10;92899.88;;;16.22;95.94
11878;BME280;5998;42.676;23.268;2023-03-11T10:26:41;92895.03;;;16.13;92.17
11878;BME280;5998;42.676;23.268;2023-03-11T10:29:15;92888.72;;;16.36;91.77
11878;BME280;5998;42.676;23.268;2023-03-11T10:31:47;92885.72;;;15.94;96.59
11878;BME280;5998;42.676;23.268;2023-03-11T10:34:19;92883.41;;;16.13;100.00
11878;BME280;5998;42.676;23.268;2023-03-11T10:36:54;92882.84;;;16.02;100.00
11878;BME280;5998;42.676;23.268;2023-03-11T10:39:24;92884.63;;;15.53;85.78
11878;BME280;5998;42.676;23.268;2023-03-11T10:41:53;92897.03;;;14.88;92.94
11878;BME280;5998;42.676;23.268;2023-03-11T10:44:24;92891.72;;;14.81;97.82
11878;BME280;5998;42.676;23.268;2023-03-11T10:46:52;92894.88;;;14.52;93.89
11878;BME280;5998;42.676;23.268;2023-03-11T10:49:19;92905.41;;;14.47;97.97
11878;BME280;5998;42.676;23.268;2023-03-11T10:51:47;92900.91;;;14.37;100.00
11878;BME280;5998;42.676;23.268;2023-03-11T10:54:25;92912.97;;;14.29;100.00
11878;BME280;5998;42.676;23.268;2023-03-11T10:56:57;92907.72;;;14.18;100.00
11878;BME280;5998;42.676;23.268;2023-03-11T10:59:27;92902.16;;;14.29;100.00
11878;BME280;5998;42.676;23.268;2023-03-11T11:01:55;92906.19;;;14.47;100.00
11878;BME280;5998;42.676;23.268;2023-03-11T11:04:28;92906.78;;;14.58;100.00
11878;BME280;5998;42.676;23.268;2023-03-11T11:06:55;92908.44;;;14.75;100.00
11878;BME280;5998;42.676;23.268;2023-03-11T11:09:25;92903.97;;;14.89;100.00
11878;BME280;5998;42.676;23.268;2023-03-11T11:12:04;92906.13;;;15.20;100.00
11878;BME280;5998;42.676;23.268;2023-03-11T11:14:42;92890.91;;;15.26;100.00
11878;BME280;5998;42.676;23.268;2023-03-11T11:17:16;92883.94;;;15.49;100.00
11878;BME280;5998;42.676;23.268;2023-03-11T11:19:43;92890.84;;;15.10;100.00
11878;BME280;5998;42.676;23.268;2023-03-11T11:22:15;92875.81;;;14.83;100.00
11878;BME280;5998;42.676;23.268;2023-03-11T11:24:44;92870.03;;;14.81;100.00
11878;BME280;5998;42.676;23.268;2023-03-11T11:27:17;92878.09;;;14.84;100.00
11878;BME280;5998;42.676;23.268;2023-03-11T11:29:45;92857.72;;;14.76;100.00
11878;BME280;5998;42.676;23.268;2023-03-11T11:32:19;92858.94;;;14.95;100.00
11878;BME280;5998;42.676;23.268;2023-03-11T11:34:55;92856.53;;;15.00;100.00
11878;BME280;5998;42.676;23.268;2023-03-11T11:37:24;92849.16;;;15.01;100.00
11878;BME280;5998;42.676;23.268;2023-03-11T11:40:00;92845.56;;;15.07;100.00
11878;BME280;5998;42.676;23.268;2023-03-11T11:42:34;92840.34;;;14.97;100.00
11878;BME280;5998;42.676;23.268;2023-03-11T11:45:08;92838.94;;;14.89;100.00
11878;BME280;5998;42.676;23.268;2023-03-11T11:47:40;92828.81;;;14.93;100.00
11878;BME280;5998;42.676;23.268;2023-03-11T11:50:14;92829.13;;;15.18;100.00
11878;BME280;5998;42.676;23.268;2023-03-11T11:52:46;92811.41;;;15.53;100.00
11878;BME280;5998;42.676;23.268;2023-03-11T11:55:19;92821.59;;;15.45;92.08
11878;BME280;5998;42.676;23.268;2023-03-11T11:57:46;92820.75;;;15.52;93.27
11878;BME280;5998;42.676;23.268;2023-03-11T12:00:18;92790.06;;;15.35;90.71
11878;BME280;5998;42.676;23.268;2023-03-11T12:02:58;92815.28;;;15.71;87.12
11878;BME280;5998;42.676;23.268;2023-03-11T12:05:29;92819.03;;;15.77;82.78
11878;BME280;5998;42.676;23.268;2023-03-11T12:08:09;92823.00;;;15.73;81.14
11878;BME280;5998;42.676;23.268;2023-03-11T12:10:44;92813.09;;;15.82;82.08
11878;BME280;5998;42.676;23.268;2023-03-11T12:13:25;92792.88;;;16.03;83.84
11878;BME280;5998;42.676;23.268;2023-03-11T12:16:00;92799.75;;;16.24;81.16
11878;BME280;5998;42.676;23.268;2023-03-11T12:18:32;92802.47;;;16.24;82.99
11878;BME280;5998;42.676;23.268;2023-03-11T12:21:12;92801.47;;;16.18;78.20
11878;BME280;5998;42.676;23.268;2023-03-11T12:23:48;92813.25;;;16.27;85.18
11878;BME280;5998;42.676;23.268;2023-03-11T12:26:25;92784.91;;;16.12;80.99
11878;BME280;5998;42.676;23.268;2023-03-11T12:28:56;92787.13;;;16.17;84.50
11878;BME280;5998;42.676;23.268;2023-03-11T12:31:26;92813.50;;;16.33;83.23
11878;BME280;5998;42.676;23.268;2023-03-11T12:33:57;92780.91;;;15.84;92.29
11878;BME280;5998;42.676;23.268;2023-03-11T12:36:29;92821.28;;;15.63;98.60
11878;BME280;5998;42.676;23.268;2023-03-11T12:38:57;92818.56;;;15.43;98.99
11878;BME280;5998;42.676;23.268;2023-03-11T12:41:29;92820.28;;;15.14;100.00
11878;BME280;5998;42.676;23.268;2023-03-11T12:44:22;92824.72;;;15.04;100.00
11878;BME280;5998;42.676;23.268;2023-03-11T12:47:15;92822.13;;;14.97;100.00
11878;BME280;5998;42.676;23.268;2023-03-11T12:49:43;92836.88;;;14.73;100.00
11878;BME280;5998;42.676;23.268;2023-03-11T12:52:20;92821.97;;;14.61;100.00
11878;BME280;5998;42.676;23.268;2023-03-11T12:54:48;92823.47;;;14.66;100.00
11878;BME280;5998;42.676;23.268;2023-03-11T12:57:39;92831.47;;;14.73;100.00
11878;BME280;5998;42.676;23.268;2023-03-11T13:00:23;92836.50;;;14.74;100.00
11878;BME280;5998;42.676;23.268;2023-03-11T13:03:22;92851.84;;;14.58;100.00
11878;BME280;5998;42.676;23.268;2023-03-11T13:05:59;92856.25;;;14.48;100.00